Flight Track Log - Related Links

Times and Time Zones

All times are in EDT time to prevent confusion due to time zone crossing. See the CPZ5718 flight status page for this flight to view local times or setup timezone preferences in your user account.

Time Position Orientation Groundspeed Altitude Reporting Facility
EDT Latitude Longitude Course Direction KTS MPH feet Rate Location/Type
Sun 06:45:38 AM 42.7236 -73.8081 281° West 150 173 1,100  Level Boston Center
Sun 06:46:45 AM 42.7147 -73.8586 257° West 216 249 2,400 1,776 Climbing Boston Center
Sun 06:47:43 AM 42.7553 -73.9275 309° West 251 289 4,800 2,847 Climbing Boston Center
Sun 06:48:00 AM 42.8422 -74.3860 283° West  Level FlightAware Approximate
Sun 06:48:43 AM 42.8064 -74.0050 312° West 270 311 8,000  Level Boston Center
Sun 06:49:00 AM 42.8677 -74.5344 324° Northwest  Level FlightAware Approximate
Sun 06:49:43 AM 42.8575 -74.0858 311° West 270 311 10,800  Level Boston Center
Sun 06:50:00 AM 42.9004 -74.6744 281° West  Level FlightAware Approximate
Sun 06:50:43 AM 42.8850 -74.1914 290° West 281 323 12,200  Level Boston Center
Sun 06:51:00 AM 42.9209 -74.8249 281° West  Level FlightAware Approximate
Sun 06:51:43 AM 42.9019 -74.3164 281° West 328 377 14,700  Level Boston Center
Sun 06:52:43 AM 42.9186 -74.4389 281° West 340 391 16,600 2,050 Climbing Boston Center
Sun 06:53:43 AM 42.9392 -74.5672 282° West 340 391 18,800 1,800 Climbing Boston Center
Sun 06:54:43 AM 42.9556 -74.6842 281° West 340 391 20,200 1,550 Climbing Boston Center
Sun 06:55:43 AM 42.9736 -74.8211 280° West 352 405 21,900 1,600 Climbing Boston Center
Sun 06:56:43 AM 42.9936 -74.9553 282° West 362 417 23,400 1,500 Climbing Boston Center
Sun 06:57:43 AM 43.0133 -75.0953 281° West 373 429 24,900 1,400 Climbing Boston Center
Sun 06:58:43 AM 43.0328 -75.2408 280° West 373 429 26,200 1,300 Climbing Boston Center
Sun 06:59:43 AM 43.0522 -75.3839 281° West 378 435 27,500 1,050 Climbing Boston Center
Sun 07:00:43 AM 43.0678 -75.5011 280° West 383 441 28,300 1,050 Climbing Boston Center
Sun 07:01:43 AM 43.0922 -75.6789 281° West 395 455 29,600 1,200 Climbing Boston Center
Sun 07:02:43 AM 43.1108 -75.8247 280° West 395 455 30,700 1,084 Climbing Boston Center
Sun 07:04:18 AM 43.1167 -76.0167 272° West 390 449 32,400 1,045 Climbing Toronto Center
Sun 07:05:18 AM 43.1500 -76.1833 285° West 380 437 33,400 800 Climbing Toronto Center
Sun 07:06:18 AM 43.1333 -76.3167 260° West 360 414 34,000 300 Climbing Toronto Center
Sun 07:07:18 AM 43.1167 -76.4500 260° West 360 414 34,000  Level Toronto Center
Sun 07:08:18 AM 43.1167 -76.5667 270° West 360 414 34,000  Level Toronto Center
Sun 07:09:18 AM 43.1000 -76.7333 262° West 360 414 34,000  Level Toronto Center
Sun 07:10:18 AM 43.1000 -76.8500 270° West 360 414 34,000  Level Toronto Center
Sun 07:11:18 AM 43.0833 -76.9833 260° West 360 414 34,000  Level Toronto Center
Sun 07:12:18 AM 43.1000 -77.1167 280° West 370 426 34,000 50 Level Toronto Center
Sun 07:13:18 AM 43.1167 -77.2500 280° West 380 437 34,100 300 Climbing Toronto Center
Sun 07:14:18 AM 43.1500 -77.4167 285° West 380 437 34,600 496 Climbing Toronto Center
Sun 07:15:19 AM 43.1833 -77.5500 289° West 380 437 35,100 500 Climbing Toronto Center
Sun 07:16:18 AM 43.2000 -77.6833 280° West 380 437 35,600 454 Climbing Toronto Center
Sun 07:17:18 AM 43.2167 -77.8333 279° West 380 437 36,000 200 Climbing Toronto Center
Sun 07:18:18 AM 43.2500 -77.9833 287° West 390 449 36,000  Level Toronto Center
Sun 07:19:18 AM 43.2667 -78.1167 280° West 400 460 36,000  Level Toronto Center
Sun 07:20:18 AM 43.3000 -78.2833 285° West 410 472 36,000  Level Toronto Center
Sun 07:21:18 AM 43.3167 -78.4333 279° West 420 483 36,000  Level Toronto Center
Sun 07:22:18 AM 43.3667 -78.6000 292° West 420 483 36,000  Level Toronto Center
Sun 07:23:18 AM 43.3833 -78.7667 278° West 420 483 36,000  Level Toronto Center
Sun 07:24:18 AM 43.4167 -78.9000 289° West 420 483 36,000  Level Toronto Center
Sun 07:25:18 AM 43.4333 -79.0833 277° West 420 483 36,000  Level Toronto Center
Sun 07:26:18 AM 43.4667 -79.2167 289° West 430 495 36,000  Level Toronto Center
Sun 07:27:18 AM 43.4833 -79.3833 278° West 430 495 36,000  Level Toronto Center
Sun 07:28:18 AM 43.5167 -79.5333 287° West 430 495 36,000  Level Toronto Center
Sun 07:29:18 AM 43.5333 -79.7000 278° West 440 506 36,000  Level Toronto Center
Sun 07:30:18 AM 43.5667 -79.8667 285° West 440 506 36,000  Level Toronto Center
Sun 07:31:18 AM 43.5833 -80.0500 277° West 440 506 36,000  Level Toronto Center
Sun 07:32:18 AM 43.6167 -80.2167 285° West 440 506 36,000  Level Toronto Center
Sun 07:33:18 AM 43.6500 -80.3667 287° West 450 518 36,000  Level Toronto Center
Sun 07:34:18 AM 43.6667 -80.5333 278° West 440 506 36,000  Level Toronto Center
Sun 07:35:18 AM 43.7000 -80.7167 284° West 450 518 36,000  Level Toronto Center
Sun 07:36:18 AM 43.7000 -80.8833 270° West 450 518 36,000  Level Toronto Center
Sun 07:37:18 AM 43.7333 -81.0333 287° West 450 518 36,000  Level Toronto Center
Sun 07:38:18 AM 43.7500 -81.2333 277° West 450 518 36,000  Level Toronto Center
Sun 07:39:18 AM 43.7833 -81.3833 287° West 450 518 36,000  Level Toronto Center
Sun 07:40:18 AM 43.8167 -81.5500 286° West 450 518 36,000  Level Toronto Center
Sun 07:41:18 AM 43.8333 -81.7167 278° West 450 518 36,000  Level Toronto Center
Sun 07:42:18 AM 43.8667 -81.9000 284° West 450 518 36,000  Level Toronto Center
Sun 07:43:18 AM 43.8833 -82.0667 278° West 460 529 36,000  Level Toronto Center
Sun 07:44:18 AM 43.9000 -82.2500 277° West 460 529 36,000  Level Toronto Center
Sun 07:45:18 AM 43.9333 -82.4167 286° West 460 529 36,000  Level Toronto Center
Sun 07:46:18 AM 43.9667 -82.6000 284° West 470 541 36,000  Level Toronto Center
Sun 07:46:54 AM 43.9742 -82.7064 276° West 466 536 36,000  Level Minneapolis Center
Sun 07:47:55 AM 43.9975 -82.8853 280° West 470 541 36,000  Level Minneapolis Center
Sun 07:48:55 AM 44.0206 -83.0644 280° West 471 542 36,000  Level Minneapolis Center
Sun 07:49:56 AM 44.0433 -83.2414 280° West 469 540 36,000  Level Minneapolis Center
Sun 07:50:56 AM 44.0661 -83.4183 280° West 467 537 36,000  Level Minneapolis Center
Sun 07:51:57 AM 44.0878 -83.5969 280° West 469 540 36,000  Level Minneapolis Center
Sun 07:52:58 AM 44.1097 -83.7756 280° West 469 540 36,000  Level Minneapolis Center
Sun 07:53:58 AM 44.1311 -83.9533 280° West 469 540 36,000  Level Minneapolis Center
Sun 07:54:59 AM 44.1525 -84.1308 280° West 466 536 36,000  Level Minneapolis Center
Sun 07:56:00 AM 44.1722 -84.3086 279° West 464 534 36,000  Level Minneapolis Center
Sun 07:57:00 AM 44.1942 -84.4867 280° West 467 537 36,000  Level Minneapolis Center
Sun 07:58:01 AM 44.2136 -84.6650 279° West 466 536 36,000  Level Minneapolis Center
Sun 07:59:01 AM 44.2344 -84.8419 279° West 465 535 36,000  Level Minneapolis Center
Sun 08:00:02 AM 44.2539 -85.0197 279° West 464 534 36,000  Level Minneapolis Center
Sun 08:01:03 AM 44.2736 -85.1956 279° West 461 531 36,000  Level Minneapolis Center
Sun 08:02:03 AM 44.2958 -85.4078 278° West 461 531 36,000  Level Minneapolis Center
Sun 08:03:04 AM 44.3139 -85.5869 278° West 463 533 36,000  Level Minneapolis Center
Sun 08:04:05 AM 44.3325 -85.7658 278° West 463 533 36,000  Level Minneapolis Center
Sun 08:05:05 AM 44.3514 -85.9453 278° West 465 535 36,000  Level Minneapolis Center
Sun 08:06:06 AM 44.3694 -86.1239 278° West 463 533 36,000  Level Minneapolis Center
Sun 08:07:07 AM 44.3867 -86.3031 278° West 462 532 36,000  Level Minneapolis Center
Sun 08:08:07 AM 44.4036 -86.4817 278° West 463 533 36,000  Level Minneapolis Center
Sun 08:09:08 AM 44.4200 -86.6606 277° West 463 533 36,000  Level Minneapolis Center
Sun 08:10:09 AM 44.4381 -86.8386 278° West 462 532 36,000  Level Minneapolis Center
Sun 08:11:09 AM 44.4533 -87.0164 277° West 461 531 36,000  Level Minneapolis Center
Sun 08:12:10 AM 44.4711 -87.1953 278° West 463 533 36,000  Level Minneapolis Center
Sun 08:13:11 AM 44.4875 -87.3736 277° West 463 533 36,000  Level Minneapolis Center
Sun 08:14:12 AM 44.5019 -87.5519 277° West 462 532 36,000  Level Minneapolis Center
Sun 08:15:12 AM 44.5167 -87.7292 277° West 460 529 36,000  Level Minneapolis Center
Sun 08:16:13 AM 44.5319 -87.9083 277° West 463 533 36,000  Level Minneapolis Center
Sun 08:17:14 AM 44.5456 -88.0786 276° West 459 528 36,000  Level Minneapolis Center
Sun 08:18:15 AM 44.5619 -88.2556 277° West 459 528 36,000  Level Minneapolis Center
Sun 08:19:16 AM 44.5861 -88.4619 279° West 461 531 36,000  Level Minneapolis Center
Sun 08:20:17 AM 44.6072 -88.6375 280° West 460 529 36,000  Level Minneapolis Center
Sun 08:21:18 AM 44.6275 -88.8144 279° West 461 531 36,000  Level Minneapolis Center
Sun 08:22:19 AM 44.6469 -88.9928 279° West 461 531 36,000  Level Minneapolis Center
Sun 08:23:19 AM 44.6664 -89.1686 279° West 460 529 36,000  Level Minneapolis Center
Sun 08:24:20 AM 44.6856 -89.3478 279° West 463 533 36,000 -148 Level Minneapolis Center
Sun 08:25:21 AM 44.7047 -89.5247 279° West 461 531 35,700 -738 Descending Minneapolis Center
Sun 08:26:22 AM 44.7247 -89.7017 279° West 460 529 34,500 -1,180 Descending Minneapolis Center
Sun 08:27:23 AM 44.7425 -89.8794 278° West 461 531 33,300 -1,180 Descending Minneapolis Center
Sun 08:28:24 AM 44.7608 -90.0597 278° West 463 533 32,100 -639 Descending Minneapolis Center
Sun 08:29:25 AM 44.7792 -90.2367 278° West 461 531 32,000 -49 Descending Minneapolis Center
Sun 08:30:26 AM 44.8006 -90.4464 278° West 465 535 32,000  Level Minneapolis Center
Sun 08:31:27 AM 44.8169 -90.6097 278° West 462 532 32,000 -246 Level Minneapolis Center
Sun 08:32:28 AM 44.8328 -90.7894 277° West 464 534 31,500 -1,511 Descending Minneapolis Center
Sun 08:33:42 AM 44.8533 -91.0044 278° West 465 535 28,600 -2,356 Descending Minneapolis Center
Sun 08:34:43 AM 44.8700 -91.1797 278° West 459 528 26,200 -2,311 Descending Minneapolis Center
Sun 08:35:44 AM 44.8861 -91.3486 278° West 445 512 23,900 -2,410 Descending Minneapolis Center
Sun 08:36:45 AM 44.9078 -91.5425 279° West 425 489 21,300 -2,361 Descending Minneapolis Center
Sun 08:37:46 AM 44.9386 -91.6950 286° West 410 472 19,100 -2,115 Descending Minneapolis Center
Sun 08:38:47 AM 44.9678 -91.8453 285° West 402 463 17,000 -2,066 Descending Minneapolis Center
Sun 08:39:48 AM 44.9956 -91.9906 285° West 387 445 14,900 -1,967 Descending Minneapolis Center
Sun 08:40:49 AM 45.0211 -92.1317 284° West 375 432 13,000 -1,869 Descending Minneapolis Center
Sun 08:41:50 AM 45.0453 -92.2686 284° West 363 418 11,100 -1,180 Descending Minneapolis Center
Sun 08:42:51 AM 45.0308 -92.4075 262° West 361 415 10,600 -787 Descending Minneapolis Center
Sun 08:43:52 AM 44.9939 -92.5156 244° Southwest 316 364 9,500 -1,279 Descending Minneapolis Center
Sun 08:44:53 AM 44.9283 -92.5919 220° Southwest 304 350 8,000 -1,230 Descending Minneapolis Center
Sun 08:45:54 AM 44.8819 -92.6822 234° Southwest 287 330 7,000 -984 Descending Minneapolis Center
Sun 08:46:55 AM 44.8319 -92.7950 238° Southwest 283 326 6,000 -1,377 Descending Minneapolis Center
Sun 08:47:56 AM 44.7947 -92.8892 241° Southwest 282 325 4,200 -976 Descending Minneapolis Center
Sun 08:48:58 AM 44.7919 -92.9867 268° West 250 288 4,000 -194 Descending Minneapolis Center

Login

Don't have an account? Register now (free) for customized features, flight alerts, and more!